Time;durP1;ratioP1;P1;durP2;ratioP2;P2;SDS_P1;SDS_P2;PMS_P1;PMS_P2;Temp;Humidity;BMP_temperature;BMP_pressure;BME280_temperature;BME280_humidity;BME280_pressure;Samples;Min_cycle;Max_cycle;Signal;HPM_P1;HPM_P2
2022/03/30 00:01:10;;;;;;;8.27;5.45;;;;;;;-0.53;63.00;98189.00;5103987;28;20020;-55
2022/03/30 00:03:36;;;;;;;9.63;5.40;;;;;;;-0.40;62.21;98205.09;5103974;28;20024;-55
2022/03/30 00:06:04;;;;;;;6.63;5.03;;;;;;;-0.31;63.68;98208.44;5103700;28;20020;-55
2022/03/30 00:08:30;;;;;;;6.85;5.07;;;;;;;-0.33;61.54;98203.38;5103836;28;20047;-55
2022/03/30 00:10:55;;;;;;;10.68;5.80;;;;;;;-0.38;63.12;98211.00;5103785;28;20369;-56
2022/03/30 00:13:22;;;;;;;9.23;5.20;;;;;;;-0.37;63.97;98204.22;5102191;28;20039;-56
2022/03/30 00:15:47;;;;;;;6.97;5.75;;;;;;;-0.42;63.07;98211.03;5103708;28;20032;-56
2022/03/30 00:18:13;;;;;;;6.35;5.35;;;;;;;-0.36;62.74;98211.00;5103719;28;20081;-56
2022/03/30 00:20:39;;;;;;;7.63;5.18;;;;;;;-0.30;63.00;98216.09;5103976;28;20050;-56
2022/03/30 00:23:05;;;;;;;7.75;6.10;;;;;;;-0.35;63.75;98212.72;5103680;28;20016;-55
2022/03/30 00:25:31;;;;;;;8.75;5.85;;;;;;;-0.48;63.74;98216.13;5103488;28;20114;-56
2022/03/30 00:27:57;;;;;;;6.28;5.60;;;;;;;-0.48;63.74;98221.22;5103602;28;20050;-55
2022/03/30 00:30:23;;;;;;;8.73;6.13;;;;;;;-0.45;64.37;98216.13;5103516;28;20248;-55
2022/03/30 00:32:49;;;;;;;7.97;6.15;;;;;;;-0.47;64.24;98225.44;5103492;28;20058;-55
2022/03/30 00:35:17;;;;;;;7.43;6.05;;;;;;;-0.46;65.72;98215.25;5102520;28;20030;-55
2022/03/30 00:37:43;;;;;;;7.63;6.05;;;;;;;-0.50;65.00;98223.75;5102328;28;20023;-55
2022/03/30 00:40:14;;;;;;;7.80;5.85;;;;;;;-0.87;65.52;98162.75;5103533;28;20027;-55
2022/03/30 00:42:40;;;;;;;9.32;5.85;;;;;;;-0.53;65.94;98234.78;5101632;28;20093;-55
2022/03/30 00:45:17;;;;;;;7.90;5.70;;;;;;;-0.50;64.72;98218.66;5102151;28;20047;-56
2022/03/30 00:47:44;;;;;;;8.70;5.65;;;;;;;-0.81;65.37;98178.03;5103646;28;20024;-56
2022/03/30 00:50:12;;;;;;;6.65;5.28;;;;;;;-0.41;65.27;98228.81;5103281;28;20069;-56
2022/03/30 00:52:38;;;;;;;6.97;5.63;;;;;;;-0.50;65.32;98225.44;5116067;28;20020;-55
2022/03/30 00:55:05;;;;;;;9.00;5.93;;;;;;;-0.47;65.31;98249.19;5103262;28;20220;-56
2022/03/30 00:57:32;;;;;;;6.80;5.95;;;;;;;-0.44;66.65;98231.38;5103322;28;20032;-57
2022/03/30 00:59:58;;;;;;;8.05;5.75;;;;;;;-0.53;65.41;98239.00;5104997;28;20021;-59
2022/03/30 01:02:25;;;;;;;6.35;4.95;;;;;;;-0.52;65.69;98233.06;5119819;28;20027;-56
2022/03/30 01:04:51;;;;;;;5.97;5.38;;;;;;;-0.47;65.24;98248.31;5088690;28;20153;-55
2022/03/30 01:07:17;;;;;;;9.30;4.85;;;;;;;-0.53;66.25;98241.53;5119132;28;20026;-57
2022/03/30 01:09:43;;;;;;;8.05;5.15;;;;;;;-0.56;65.74;98255.09;5102946;28;20091;-56
2022/03/30 01:12:10;;;;;;;6.18;5.55;;;;;;;-0.55;66.04;98253.41;5102880;28;20090;-56
2022/03/30 01:14:36;;;;;;;8.07;5.43;;;;;;;-0.68;66.05;98251.69;5103255;28;20276;-55
2022/03/30 01:17:03;;;;;;;7.40;6.30;;;;;;;-0.59;66.02;98260.19;5102916;28;20378;-56
2022/03/30 01:19:31;;;;;;;6.57;5.13;;;;;;;-0.95;65.82;98205.97;5103034;28;20019;-56
2022/03/30 01:21:56;;;;;;;7.22;4.95;;;;;;;-0.54;64.20;98265.28;5103329;28;20024;-56
2022/03/30 01:24:22;;;;;;;7.47;5.03;;;;;;;-0.69;64.71;98258.50;5103037;28;20339;-56
2022/03/30 01:26:47;;;;;;;6.35;5.43;;;;;;;-0.69;64.21;98263.56;5103056;28;20079;-55
2022/03/30 01:34:43;;;;;;;4.97;4.40;;;;;;;-0.74;63.34;98266.13;5119178;28;20031;-54
2022/03/30 01:37:11;;;;;;;3.60;3.17;;;;;;;-0.79;62.89;98270.34;5110339;28;20125;-54
2022/03/30 01:39:37;;;;;;;5.90;4.00;;;;;;;-0.74;63.61;98270.34;5102868;28;20272;-55
2022/03/30 01:42:03;;;;;;;7.53;4.60;;;;;;;-0.90;63.60;98275.44;5102823;28;20221;-55
2022/03/30 01:44:30;;;;;;;5.18;3.95;;;;;;;-0.85;63.45;98277.97;5102837;28;20047;-55
2022/03/30 01:46:55;;;;;;;6.18;4.13;;;;;;;-0.84;64.83;98282.22;5102675;28;20046;-55
2022/03/30 01:49:21;;;;;;;6.88;4.10;;;;;;;-0.91;64.20;98283.88;5102745;28;20024;-56
2022/03/30 01:51:54;;;;;;;6.35;4.47;;;;;;;-0.91;64.04;98288.97;5102811;28;20016;-55
2022/03/30 01:54:23;;;;;;;8.27;4.60;;;;;;;-1.14;63.98;98255.03;5105310;28;20130;-55
2022/03/30 01:56:50;;;;;;;7.05;4.30;;;;;;;-0.93;63.25;98285.56;5105176;28;20252;-56
2022/03/30 01:59:17;;;;;;;5.75;4.50;;;;;;;-0.91;64.52;98291.50;5104718;28;20051;-55
2022/03/30 02:01:42;;;;;;;5.30;4.18;;;;;;;-1.15;64.00;98284.69;5105902;28;20062;-55
2022/03/30 02:04:09;;;;;;;7.38;4.28;;;;;;;-1.21;63.51;98305.00;5104487;28;20325;-56
2022/03/30 02:06:36;;;;;;;5.25;4.13;;;;;;;-1.15;64.61;98301.63;5105582;28;20305;-55
2022/03/30 02:09:02;;;;;;;5.43;3.92;;;;;;;-1.11;64.33;98303.31;5122201;28;20051;-55
2022/03/30 02:11:28;;;;;;;4.93;4.30;;;;;;;-1.09;64.14;98306.72;5106286;28;20101;-55
2022/03/30 02:13:55;;;;;;;5.65;4.38;;;;;;;-1.03;64.18;98300.81;5105894;28;20107;-56
2022/03/30 02:16:20;;;;;;;4.72;3.95;;;;;;;-1.03;63.29;98303.34;5120434;28;20047;-57
2022/03/30 02:18:46;;;;;;;4.80;4.15;;;;;;;-1.00;64.20;98309.25;5095682;28;20016;-58
2022/03/30 02:21:13;;;;;;;5.88;4.32;;;;;;;-1.04;64.44;98305.03;5105423;28;20023;-57
2022/03/30 02:23:39;;;;;;;5.35;4.20;;;;;;;-1.13;64.65;98308.38;5105636;28;20016;-57
2022/03/30 02:26:06;;;;;;;6.95;4.80;;;;;;;-1.07;65.67;98313.50;5113879;28;20095;-57
2022/03/30 02:28:32;;;;;;;8.98;5.13;;;;;;;-0.96;66.17;98315.22;5104649;28;20036;-56
2022/03/30 02:30:58;;;;;;;6.55;4.65;;;;;;;-0.96;65.39;98321.13;5104855;28;20028;-56
2022/03/30 02:33:24;;;;;;;6.28;4.47;;;;;;;-0.98;64.67;98325.38;5104640;28;20035;-56
2022/03/30 02:35:51;;;;;;;7.55;4.75;;;;;;;-1.04;65.72;98330.44;5104499;28;20317;-57
2022/03/30 02:38:16;;;;;;;6.45;4.50;;;;;;;-1.17;65.36;98336.31;5084825;28;20031;-56
2022/03/30 02:40:43;;;;;;;7.20;4.90;;;;;;;-1.29;67.25;98332.03;5104228;28;20024;-57
2022/03/30 02:43:10;;;;;;;6.03;4.85;;;;;;;-1.27;68.22;98338.84;5093304;28;20028;-56
2022/03/30 02:45:36;;;;;;;7.15;4.75;;;;;;;-1.22;67.65;98341.38;5091430;28;20205;-56
2022/03/30 02:48:17;;;;;;;6.50;4.60;;;;;;;-1.16;67.91;98343.09;5102658;28;20024;-56
2022/03/30 02:50:54;;;;;;;6.55;5.18;;;;;;;-1.11;68.42;98351.56;5102869;28;20083;-57
2022/03/30 02:53:21;;;;;;;7.90;5.30;;;;;;;-1.16;67.75;98343.09;5101544;28;21202;-57
2022/03/30 02:55:47;;;;;;;5.57;4.70;;;;;;;-1.22;67.45;98354.09;5104326;28;20062;-57
2022/03/30 02:58:13;;;;;;;5.10;3.92;;;;;;;-1.17;68.11;98346.47;5114480;28;20019;-57
2022/03/30 03:00:39;;;;;;;5.70;4.95;;;;;;;-1.11;67.04;98354.97;5123417;28;20034;-57
2022/03/30 03:03:07;;;;;;;6.00;4.80;;;;;;;-1.06;67.78;98365.97;5114564;27;20321;-57
2022/03/30 03:05:33;;;;;;;4.95;4.07;;;;;;;-1.31;67.27;98364.19;5103601;28;20051;-57
2022/03/30 03:08:00;;;;;;;5.70;4.43;;;;;;;-1.30;68.61;98376.88;5104795;28;20023;-57
2022/03/30 03:10:26;;;;;;;5.88;4.35;;;;;;;-1.18;69.17;98365.09;5104722;28;20214;-56
2022/03/30 03:12:52;;;;;;;5.95;4.25;;;;;;;-1.16;68.22;98378.66;5104694;28;20081;-57
2022/03/30 03:15:18;;;;;;;4.72;4.28;;;;;;;-1.15;69.11;98377.81;5106724;28;20041;-57
2022/03/30 03:17:44;;;;;;;8.45;4.45;;;;;;;-1.13;68.65;98386.28;5125309;28;20028;-56
2022/03/30 03:20:11;;;;;;;7.80;5.05;;;;;;;-1.30;68.50;98381.13;5106063;27;20027;-57
2022/03/30 03:22:38;;;;;;;10.80;5.43;;;;;;;-1.31;69.35;98394.66;5103913;28;20236;-57
2022/03/30 03:25:04;;;;;;;7.88;5.40;;;;;;;-1.25;69.24;98398.09;5114397;28;20033;-57
2022/03/30 03:27:30;;;;;;;11.57;5.47;;;;;;;-1.24;67.26;98399.78;5124899;28;20027;-58
2022/03/30 03:29:56;;;;;;;9.48;5.15;;;;;;;-1.38;69.01;98393.78;5124852;28;20060;-58
2022/03/30 03:32:22;;;;;;;9.88;5.03;;;;;;;-1.30;68.11;98396.38;5125066;27;20043;-57
2022/03/30 03:34:48;;;;;;;7.35;4.82;;;;;;;-1.30;67.54;98402.28;5108869;28;20095;-58
2022/03/30 03:37:15;;;;;;;8.07;5.07;;;;;;;-1.25;67.59;98402.31;5115538;28;20086;-58
2022/03/30 03:39:42;;;;;;;9.18;5.00;;;;;;;-1.25;67.46;98404.88;5124871;28;20039;-59
2022/03/30 03:42:07;;;;;;;7.25;5.18;;;;;;;-1.24;68.67;98404.88;5122922;28;20099;-57
2022/03/30 03:44:33;;;;;;;7.68;5.18;;;;;;;-1.14;67.55;98417.59;5104361;28;20024;-57
2022/03/30 03:46:58;;;;;;;8.00;5.53;;;;;;;-1.15;66.86;98413.38;5121558;28;20048;-57
2022/03/30 03:49:24;;;;;;;6.55;4.85;;;;;;;-1.31;66.54;98415.84;5111870;28;20123;-58
2022/03/30 03:51:50;;;;;;;8.57;5.18;;;;;;;-1.21;66.48;98424.38;5111845;28;20035;-57
2022/03/30 03:54:16;;;;;;;6.55;5.10;;;;;;;-1.35;65.60;98420.88;5107563;28;20020;-56
2022/03/30 03:56:41;;;;;;;5.68;5.05;;;;;;;-1.32;65.62;98424.28;5104361;28;20024;-57
2022/03/30 03:59:07;;;;;;;6.72;4.72;;;;;;;-1.49;65.04;98434.34;5113931;28;20028;-55
2022/03/30 04:01:33;;;;;;;9.88;4.90;;;;;;;-1.39;64.83;98437.78;5103795;28;20035;-57
2022/03/30 04:03:58;;;;;;;6.60;5.30;;;;;;;-1.42;65.62;98430.16;5103798;28;20094;-58
2022/03/30 04:06:25;;;;;;;6.18;5.05;;;;;;;-1.32;64.52;98444.59;5102309;28;20024;-56
2022/03/30 04:08:50;;;;;;;6.03;4.78;;;;;;;-1.33;63.86;98442.91;5103827;28;20032;-57
2022/03/30 04:11:16;;;;;;;7.55;4.63;;;;;;;-1.36;64.41;98442.88;5102264;28;20024;-57
2022/03/30 04:13:42;;;;;;;6.47;5.13;;;;;;;-1.76;64.30;98442.63;5103242;28;20040;-56
2022/03/30 04:16:07;;;;;;;7.45;4.82;;;;;;;-1.49;63.33;98454.66;5100921;28;20032;-56
2022/03/30 04:18:33;;;;;;;6.05;4.53;;;;;;;-1.56;63.39;98453.75;5103423;28;20016;-57
2022/03/30 04:20:58;;;;;;;4.97;4.45;;;;;;;-1.44;63.94;98465.69;5103863;28;20024;-56
2022/03/30 04:23:24;;;;;;;5.43;4.07;;;;;;;-1.47;62.47;98458.06;5122882;28;20024;-56
2022/03/30 04:25:49;;;;;;;5.75;3.80;;;;;;;-1.50;62.36;98454.66;5107923;28;20026;-56
2022/03/30 04:28:17;;;;;;;6.82;4.30;;;;;;;-1.41;62.05;98464.84;5103053;28;20305;-56
2022/03/30 04:30:43;;;;;;;5.38;4.07;;;;;;;-1.46;63.08;98467.38;5103166;28;20016;-56
2022/03/30 04:33:09;;;;;;;4.65;3.42;;;;;;;-1.48;62.52;98474.13;5103276;28;20050;-56
2022/03/30 04:35:36;;;;;;;3.95;3.42;;;;;;;-1.47;61.54;98469.88;5103208;28;20024;-56
2022/03/30 04:38:02;;;;;;;4.22;3.25;;;;;;;-1.68;60.29;98476.53;5100071;28;20024;-57
2022/03/30 04:40:28;;;;;;;6.50;4.88;;;;;;;-1.61;62.39;98477.41;5103380;28;20103;-58
2022/03/30 04:42:54;;;;;;;5.00;3.47;;;;;;;-1.82;61.57;98480.63;5109747;28;20060;-56
2022/03/30 04:45:20;;;;;;;6.13;3.65;;;;;;;-1.75;61.26;98485.75;5120212;28;20217;-57
2022/03/30 04:47:47;;;;;;;5.72;4.10;;;;;;;-1.80;61.94;98489.94;5102248;28;20043;-56
2022/03/30 04:50:13;;;;;;;4.28;3.70;;;;;;;-1.79;61.55;98488.28;5121942;28;20035;-57
2022/03/30 04:52:39;;;;;;;3.95;3.55;;;;;;;-1.56;61.57;98484.22;5120253;28;20341;-57
2022/03/30 04:55:07;;;;;;;4.38;3.97;;;;;;;-1.49;60.93;98489.34;5101519;28;20020;-57
2022/03/30 04:57:32;;;;;;;4.95;4.00;;;;;;;-1.50;60.35;98485.09;5102408;28;20351;-56
2022/03/30 04:59:58;;;;;;;5.07;3.97;;;;;;;-1.39;60.67;98497.03;5102837;28;20024;-57
2022/03/30 05:02:26;;;;;;;7.72;4.50;;;;;;;-1.35;61.36;98494.50;5102674;28;20046;-58
2022/03/30 05:04:52;;;;;;;6.95;4.28;;;;;;;-1.23;60.03;98505.63;5118199;28;20336;-58
2022/03/30 05:07:18;;;;;;;7.05;4.50;;;;;;;-1.24;59.97;98496.31;5123014;28;20347;-57
2022/03/30 05:09:44;;;;;;;5.50;4.72;;;;;;;-1.01;61.21;98503.22;5117237;28;20028;-57
2022/03/30 05:12:10;;;;;;;5.13;4.57;;;;;;;-0.90;58.64;98506.66;5103743;28;20036;-57
2022/03/30 05:14:35;;;;;;;6.15;4.45;;;;;;;-0.88;59.78;98506.69;5122272;28;20043;-57
2022/03/30 05:17:02;;;;;;;5.78;4.65;;;;;;;-0.93;58.84;98511.72;5105375;28;20035;-57
2022/03/30 05:19:28;;;;;;;6.80;4.90;;;;;;;-0.96;59.99;98514.25;5101981;28;20269;-58
2022/03/30 05:21:55;;;;;;;8.82;4.75;;;;;;;-0.90;59.66;98519.38;5101768;28;20079;-57
2022/03/30 05:24:20;;;;;;;5.38;4.38;;;;;;;-0.96;59.84;98514.25;5101629;28;20050;-57
2022/03/30 05:26:46;;;;;;;5.90;4.10;;;;;;;-1.01;59.95;98525.22;5102072;28;20225;-58
2022/03/30 05:29:12;;;;;;;4.85;4.22;;;;;;;-1.00;58.98;98522.69;5123984;28;20065;-58
2022/03/30 05:31:37;;;;;;;5.25;3.75;;;;;;;-1.02;58.75;98526.91;5127199;28;20032;-57
2022/03/30 05:34:03;;;;;;;3.72;3.33;;;;;;;-1.02;59.24;98532.00;5118371;27;20020;-58
2022/03/30 05:36:29;;;;;;;7.35;3.97;;;;;;;-1.03;59.14;98539.63;5106866;28;20031;-57
2022/03/30 05:38:55;;;;;;;4.57;4.13;;;;;;;-0.95;58.81;98541.34;5127130;28;20028;-57
2022/03/30 05:41:21;;;;;;;3.92;3.50;;;;;;;-0.84;58.81;98540.56;5127093;28;20027;-57
2022/03/30 05:43:47;;;;;;;4.70;3.80;;;;;;;-0.57;58.84;98543.25;5112149;28;20289;-56
2022/03/30 05:46:12;;;;;;;5.20;4.20;;;;;;;-0.71;59.70;98549.97;5106447;28;20024;-58
2022/03/30 05:48:38;;;;;;;4.20;3.28;;;;;;;-0.73;56.56;98546.56;5106423;28;20095;-57
2022/03/30 05:51:04;;;;;;;5.32;3.17;;;;;;;-0.53;56.68;98544.97;5106084;28;20020;-57
2022/03/30 05:53:30;;;;;;;3.95;3.10;;;;;;;-0.35;57.52;98554.34;5106569;28;20033;-57
2022/03/30 05:55:56;;;;;;;5.00;3.30;;;;;;;-0.44;54.69;98556.00;5105078;28;20051;-57
2022/03/30 05:58:21;;;;;;;3.63;3.30;;;;;;;-0.20;55.96;98555.25;5122134;28;20024;-58
2022/03/30 06:00:48;;;;;;;4.38;3.05;;;;;;;0.13;53.86;98546.88;5112325;28;20198;-58
2022/03/30 06:03:14;;;;;;;4.50;3.25;;;;;;;0.45;52.34;98561.34;5126557;28;20080;-58
2022/03/30 06:05:40;;;;;;;3.53;3.22;;;;;;;0.39;54.23;98561.34;5125900;28;20386;-58
2022/03/30 06:08:07;;;;;;;4.15;3.10;;;;;;;0.54;52.01;98557.94;5108274;28;20332;-58
2022/03/30 06:10:33;;;;;;;3.75;2.85;;;;;;;0.73;52.12;98561.38;5117536;28;20043;-58
2022/03/30 06:12:59;;;;;;;3.92;3.20;;;;;;;1.16;52.37;98561.31;5124245;28;20047;-58
2022/03/30 06:15:25;;;;;;;4.97;3.17;;;;;;;1.16;51.71;98573.22;5123263;28;20374;-59
2022/03/30 06:17:51;;;;;;;3.58;2.72;;;;;;;1.32;49.63;98571.50;5101447;28;20237;-58
2022/03/30 06:20:17;;;;;;;3.83;2.50;;;;;;;0.95;50.62;98571.53;5103293;28;20032;-58
2022/03/30 06:22:44;;;;;;;3.45;2.90;;;;;;;1.35;51.57;98576.56;5101514;28;20039;-61
2022/03/30 06:25:11;;;;;;;4.97;3.40;;;;;;;0.97;50.72;98573.25;5111771;28;20282;-58
2022/03/30 06:27:38;;;;;;;3.53;3.22;;;;;;;1.13;51.36;98576.63;5118711;28;20040;-58
2022/03/30 06:30:05;;;;;;;5.25;3.38;;;;;;;0.89;50.91;98576.66;5102301;28;20060;-57
2022/03/30 06:32:31;;;;;;;6.03;2.90;;;;;;;1.42;50.86;98588.47;5082430;28;20364;-58
2022/03/30 06:34:56;;;;;;;4.53;3.08;;;;;;;2.05;48.83;98564.41;5098382;28;20032;-58
2022/03/30 06:37:22;;;;;;;9.10;3.20;;;;;;;2.35;47.74;98588.06;5096736;28;20064;-59
2022/03/30 06:39:49;;;;;;;3.78;2.80;;;;;;;2.44;47.15;98575.25;5099858;28;20106;-59
2022/03/30 06:42:16;;;;;;;6.57;4.10;;;;;;;3.16;47.01;98595.97;5103287;28;20036;-58
2022/03/30 06:44:42;;;;;;;4.32;3.33;;;;;;;2.79;46.83;98597.13;5118542;28;20043;-59
2022/03/30 06:47:09;;;;;;;7.95;3.40;;;;;;;2.56;47.03;98602.41;5102341;28;20041;-58
2022/03/30 06:49:37;;;;;;;4.20;3.08;;;;;;;3.70;45.49;98598.00;5104384;28;20055;-57
2022/03/30 06:52:08;;;;;;;3.97;3.00;;;;;;;4.26;43.15;98599.00;5103944;28;20070;-59
2022/03/30 06:54:34;;;;;;;3.40;3.10;;;;;;;3.52;43.82;98604.16;5103822;28;20058;-58
2022/03/30 06:57:01;;;;;;;3.80;3.20;;;;;;;3.97;43.31;98607.91;5102522;28;20130;-58
2022/03/30 06:59:27;;;;;;;4.20;3.40;;;;;;;4.81;42.27;98607.59;5100559;28;20406;-58
2022/03/30 07:01:56;;;;;;;5.88;3.08;;;;;;;4.48;39.72;98609.78;5101711;28;20028;-59
2022/03/30 07:04:22;;;;;;;3.65;3.10;;;;;;;3.81;41.67;98614.09;5112698;28;20073;-59
2022/03/30 07:12:16;;;;;;;7.47;3.10;;;;;;;3.33;43.47;98618.84;5104172;28;20044;-58
2022/03/30 07:14:43;;;;;;;3.80;3.08;;;;;;;3.57;42.62;98628.00;5103868;28;20276;-60
2022/03/30 07:17:08;;;;;;;3.15;2.85;;;;;;;3.26;42.86;98634.28;5104165;28;20053;-58
2022/03/30 07:19:34;;;;;;;6.47;3.08;;;;;;;3.27;43.65;98643.63;5121531;27;20031;-59
2022/03/30 07:21:59;;;;;;;4.47;2.78;;;;;;;3.23;42.89;98649.63;5106647;28;20133;-59
2022/03/30 07:24:25;;;;;;;6.43;3.25;;;;;;;3.56;44.08;98645.06;5102760;28;20016;-58
2022/03/30 07:26:51;;;;;;;3.72;2.90;;;;;;;3.38;43.31;98617.94;5103645;28;20321;-58
2022/03/30 07:29:17;;;;;;;7.68;3.30;;;;;;;4.11;42.95;98645.31;5102563;28;20224;-59
2022/03/30 07:31:43;;;;;;;4.22;2.67;;;;;;;3.97;43.02;98653.16;5108990;28;20023;-58
2022/03/30 07:34:09;;;;;;;4.10;3.03;;;;;;;3.28;41.75;98653.00;5103589;28;20091;-58
2022/03/30 07:36:35;;;;;;;3.70;2.88;;;;;;;3.57;43.23;98662.13;5104603;28;20198;-58
2022/03/30 07:39:01;;;;;;;3.08;2.58;;;;;;;3.68;42.38;98662.03;5124317;28;20031;-57
2022/03/30 07:41:26;;;;;;;3.05;2.60;;;;;;;3.97;40.15;98660.84;5124302;28;20027;-58
2022/03/30 07:43:52;;;;;;;3.60;2.53;;;;;;;4.14;40.32;98650.41;5109859;28;20027;-57
2022/03/30 07:46:18;;;;;;;4.38;2.95;;;;;;;4.53;40.05;98644.78;5114173;28;20069;-58
2022/03/30 07:48:43;;;;;;;4.32;3.53;;;;;;;4.77;39.24;98656.41;5107622;28;20061;-60
2022/03/30 07:51:09;;;;;;;4.75;3.30;;;;;;;4.64;39.17;98604.44;5123767;28;20027;-57
2022/03/30 07:53:35;;;;;;;5.40;3.85;;;;;;;5.04;40.28;98649.16;5103921;28;20170;-57
2022/03/30 07:56:00;;;;;;;4.93;3.60;;;;;;;5.26;39.33;98655.63;5103603;28;20031;-58
2022/03/30 07:58:26;;;;;;;8.20;3.75;;;;;;;5.27;40.06;98651.34;5101568;28;20081;-57
2022/03/30 08:03:27;;;;;;;5.25;3.53;;;;;;;4.88;39.67;98651.97;5141550;22;20087;-57
2022/03/30 08:05:52;;;;;;;7.15;3.45;;;;;;;4.40;39.61;98659.47;5089524;28;20032;-57
2022/03/30 08:08:18;;;;;;;4.88;3.00;;;;;;;4.20;41.35;98670.81;5091845;28;20015;-57
2022/03/30 08:10:44;;;;;;;3.55;3.05;;;;;;;3.78;39.44;98668.72;5086749;28;20036;-57
2022/03/30 08:13:12;;;;;;;3.72;2.60;;;;;;;3.43;39.20;98671.63;5089780;28;20028;-57
2022/03/30 08:15:38;;;;;;;4.38;2.97;;;;;;;3.56;40.57;98672.38;5357378;22;20051;-58
2022/03/30 08:18:05;;;;;;;5.10;2.65;;;;;;;3.63;42.13;98674.88;5063715;28;20021;-58
2022/03/30 08:23:14;;;;;;;4.25;2.60;;;;;;;4.47;40.11;98679.03;5065267;28;20093;-58
2022/03/30 08:25:40;;;;;;;7.05;3.25;;;;;;;4.56;39.34;98668.66;5061119;28;20071;-57
2022/03/30 08:28:06;;;;;;;4.45;2.47;;;;;;;4.69;38.41;98660.78;5062571;28;20025;-58
2022/03/30 08:33:18;;;;;;;5.68;2.58;;;;;;;4.70;39.29;98672.75;5069351;28;20033;-57
2022/03/30 08:35:44;;;;;;;3.03;2.22;;;;;;;4.96;36.18;98662.09;5065729;28;20020;-57
2022/03/30 08:38:09;;;;;;;2.53;1.80;;;;;;;4.98;36.01;98674.03;5071503;28;20033;-57
2022/03/30 08:40:35;;;;;;;5.10;2.15;;;;;;;5.60;37.09;98679.88;5065967;28;20047;-58
2022/03/30 08:43:00;;;;;;;3.75;2.13;;;;;;;5.20;36.55;98681.38;5063052;28;20039;-56
2022/03/30 08:45:26;;;;;;;3.38;2.53;;;;;;;4.89;37.42;98678.44;5071605;28;20055;-57
2022/03/30 08:47:52;;;;;;;2.42;2.00;;;;;;;5.53;37.04;98672.28;5075785;28;20021;-58
2022/03/30 08:50:19;;;;;;;3.30;1.92;;;;;;;5.34;33.85;98673.47;5074833;28;20028;-57
2022/03/30 08:52:49;;;;;;;4.30;1.88;;;;;;;5.41;36.46;98679.34;5072366;28;20086;-57
2022/03/30 08:55:16;;;;;;;3.45;1.98;;;;;;;4.07;35.63;98688.03;5064459;28;20037;-56
2022/03/30 08:57:42;;;;;;;5.88;2.35;;;;;;;3.78;37.45;98676.41;5045844;28;20036;-56
2022/03/30 09:00:16;;;;;;;2.47;2.10;;;;;;;3.46;36.67;98628.09;5061750;28;20032;-57
2022/03/30 09:02:48;;;;;;;3.55;2.50;;;;;;;2.98;36.65;98628.53;5042123;28;20017;-57
2022/03/30 09:05:20;;;;;;;3.45;2.20;;;;;;;3.13;37.53;98624.16;5062712;28;20084;-56
2022/03/30 09:07:51;;;;;;;3.42;2.25;;;;;;;3.66;38.32;98630.44;5065813;28;20100;-57
2022/03/30 09:10:21;;;;;;;3.60;2.20;;;;;;;3.45;37.24;98714.28;5066051;28;20024;-57
2022/03/30 09:12:50;;;;;;;2.00;1.80;;;;;;;3.21;38.65;98659.03;5065481;28;20033;-57
2022/03/30 09:15:16;;;;;;;4.15;1.60;;;;;;;3.14;37.11;98680.41;5065285;28;20348;-56
2022/03/30 09:17:43;;;;;;;3.13;2.10;;;;;;;3.99;39.76;98695.00;5067369;28;20034;-58
2022/03/30 09:20:16;;;;;;;4.40;2.22;;;;;;;3.61;38.29;98648.41;5065531;28;20029;-58
2022/03/30 09:22:47;;;;;;;2.83;1.63;;;;;;;4.09;38.21;98699.16;5065649;28;20355;-58
2022/03/30 09:25:13;;;;;;;4.25;2.22;;;;;;;3.77;38.26;98699.47;5071995;28;20149;-57
2022/03/30 09:27:44;;;;;;;3.95;2.40;;;;;;;3.53;38.18;98713.34;5073019;28;20143;-57
2022/03/30 09:30:14;;;;;;;2.40;2.03;;;;;;;4.05;37.34;98692.34;5064996;28;20028;-58
2022/03/30 09:32:42;;;;;;;2.53;1.75;;;;;;;4.52;37.80;98682.41;5045424;28;20131;-57
2022/03/30 09:35:28;;;;;;;2.60;1.75;;;;;;;4.36;35.78;98686.00;5068937;28;20071;-56
2022/03/30 09:38:13;;;;;;;1.83;1.70;;;;;;;4.52;36.82;98687.53;5072540;28;20098;-57
2022/03/30 09:40:43;;;;;;;2.60;1.80;;;;;;;3.85;38.05;98648.16;5076906;28;20080;-57
2022/03/30 09:43:10;;;;;;;2.13;1.65;;;;;;;4.04;36.49;98705.19;5071835;28;20386;-58
2022/03/30 09:45:35;;;;;;;3.88;2.10;;;;;;;4.20;37.89;98706.69;5075075;28;20040;-57
2022/03/30 09:48:10;;;;;;;2.00;1.80;;;;;;;3.85;36.53;98705.38;5080388;28;20237;-56
2022/03/30 09:50:45;;;;;;;3.30;1.90;;;;;;;3.55;38.13;98640.81;5064851;28;20029;-57
2022/03/30 09:53:13;;;;;;;3.15;1.77;;;;;;;3.98;37.43;98700.97;5065966;28;20031;-56
2022/03/30 09:55:51;;;;;;;2.67;1.90;;;;;;;4.21;37.28;98685.34;5058850;28;20028;-58
2022/03/30 09:58:19;;;;;;;2.67;2.00;;;;;;;4.04;38.22;98643.69;5064517;28;20024;-57
2022/03/30 10:00:48;;;;;;;3.78;2.33;;;;;;;4.33;38.73;98702.28;5063759;28;20355;-57
2022/03/30 10:03:14;;;;;;;3.03;2.20;;;;;;;4.17;39.11;98686.22;5064204;28;20059;-56
2022/03/30 10:05:40;;;;;;;3.55;2.42;;;;;;;4.25;39.38;98693.84;5064678;28;20033;-56
2022/03/30 10:08:06;;;;;;;3.17;1.77;;;;;;;4.07;36.37;98700.84;5064214;28;20236;-57
2022/03/30 10:10:32;;;;;;;1.77;1.65;;;;;;;3.85;38.38;98638.78;5063638;28;20114;-57
2022/03/30 10:12:57;;;;;;;3.97;1.92;;;;;;;4.42;37.67;98706.47;5065469;28;20337;-56
2022/03/30 10:15:23;;;;;;;5.78;2.00;;;;;;;4.54;37.81;98701.16;5074895;28;20281;-56
2022/03/30 10:17:49;;;;;;;2.83;1.83;;;;;;;3.90;37.56;98688.22;5069644;28;20097;-57
2022/03/30 10:20:14;;;;;;;2.97;1.90;;;;;;;3.95;38.32;98724.06;5069934;28;20032;-57
2022/03/30 10:22:58;;;;;;;1.95;1.70;;;;;;;3.58;36.41;98712.47;5073014;28;20024;-60
2022/03/30 10:25:35;;;;;;;3.65;1.83;;;;;;;3.00;37.52;98712.91;5074411;28;20028;-56
2022/03/30 10:28:19;;;;;;;3.35;2.03;;;;;;;3.06;37.46;98717.97;5067065;28;20036;-58
2022/03/30 10:30:45;;;;;;;2.00;1.80;;;;;;;3.39;39.16;98710.91;5072551;28;20031;-56
2022/03/30 10:33:12;;;;;;;6.97;1.75;;;;;;;3.37;36.68;98716.03;5069656;28;20096;-58
2022/03/30 10:35:43;;;;;;;2.25;1.42;;;;;;;3.09;36.64;98711.16;5072283;28;20016;-57
2022/03/30 10:38:10;;;;;;;3.15;1.52;;;;;;;2.99;37.82;98714.59;5071788;28;20025;-58
2022/03/30 10:40:38;;;;;;;2.67;1.80;;;;;;;3.14;39.11;98721.34;5074955;28;20039;-58
2022/03/30 10:43:08;;;;;;;2.40;1.50;;;;;;;3.05;39.68;98711.16;5074262;28;20186;-57
2022/03/30 10:45:43;;;;;;;1.50;1.30;;;;;;;2.84;38.62;98717.28;5069286;28;20021;-57
2022/03/30 10:48:11;;;;;;;1.90;1.48;;;;;;;2.97;39.59;98720.63;5083962;28;20032;-57
2022/03/30 10:50:41;;;;;;;1.85;1.50;;;;;;;2.40;39.10;98657.88;5064843;28;20077;-56
2022/03/30 10:53:31;;;;;;;2.08;1.35;;;;;;;2.68;39.29;98713.94;5070631;28;20085;-57
2022/03/30 10:56:09;;;;;;;1.83;1.45;;;;;;;2.75;39.57;98713.03;5070264;28;20024;-57
2022/03/30 10:58:36;;;;;;;1.65;1.40;;;;;;;3.03;39.02;98718.00;5063572;28;20106;-57
2022/03/30 11:01:13;;;;;;;2.72;1.70;;;;;;;2.95;38.35;98705.28;5063667;28;20029;-56
2022/03/30 11:03:56;;;;;;;1.63;1.30;;;;;;;3.08;38.52;98712.00;5063600;28;20025;-56
2022/03/30 11:06:22;;;;;;;2.80;1.58;;;;;;;2.94;36.93;98709.53;5062314;28;20108;-57
2022/03/30 11:08:51;;;;;;;2.75;1.50;;;;;;;2.90;37.12;98709.56;5063508;28;20028;-57
2022/03/30 11:11:26;;;;;;;1.60;1.40;;;;;;;2.92;36.91;98716.38;5063519;28;20033;-56
2022/03/30 11:14:23;;;;;;;2.90;1.50;;;;;;;2.75;37.83;98713.91;5063543;28;20033;-57
2022/03/30 11:16:50;;;;;;;1.17;1.13;;;;;;;2.82;38.47;98704.50;5063178;28;20068;-55
2022/03/30 11:19:17;;;;;;;1.92;1.55;;;;;;;2.98;37.22;98717.19;5063352;28;20045;-57
2022/03/30 11:22:07;;;;;;;3.35;1.63;;;;;;;2.87;36.98;98725.78;5063352;28;20024;-57
2022/03/30 11:24:32;;;;;;;2.53;1.52;;;;;;;2.64;38.51;98722.50;5063293;28;20040;-57
2022/03/30 11:26:58;;;;;;;1.33;1.23;;;;;;;2.41;36.82;98728.56;5062376;28;20052;-56
2022/03/30 11:29:52;;;;;;;2.17;1.30;;;;;;;2.42;36.51;98727.69;5061706;28;20044;-57
2022/03/30 11:32:24;;;;;;;1.20;1.10;;;;;;;2.27;35.89;98720.09;5063433;28;20100;-56
2022/03/30 11:34:54;;;;;;;2.47;1.35;;;;;;;2.34;36.96;98717.53;5062974;28;20213;-56
2022/03/30 11:37:30;;;;;;;1.88;1.30;;;;;;;2.53;35.94;98699.56;5063089;28;20044;-57
2022/03/30 11:40:04;;;;;;;1.65;1.38;;;;;;;2.73;36.52;98720.72;5062702;28;20045;-56
2022/03/30 11:42:30;;;;;;;1.15;1.08;;;;;;;2.62;37.10;98706.31;5061631;28;20272;-56
2022/03/30 11:45:14;;;;;;;1.52;1.42;;;;;;;2.69;36.01;98705.44;5063055;28;20032;-58
2022/03/30 11:47:45;;;;;;;2.75;1.70;;;;;;;2.85;35.87;98737.72;5061598;28;20037;-56
2022/03/30 11:50:16;;;;;;;2.90;1.60;;;;;;;2.91;37.32;98714.66;5062651;28;20053;-56
2022/03/30 11:52:43;;;;;;;1.67;1.57;;;;;;;2.98;36.20;98712.94;5066043;28;20262;-57
2022/03/30 11:55:09;;;;;;;3.45;1.13;;;;;;;2.80;35.04;98719.00;5069886;28;20241;-57
2022/03/30 11:57:42;;;;;;;2.03;1.35;;;;;;;3.00;35.04;98695.84;5060099;28;20025;-57